sensor_id;sensor_type;location;lat;lon;timestamp;P1;durP1;ratioP1;P2;durP2;ratioP2
253;SDS011;590;48.772;8.846;2022-12-29T00:00:59;2.53;;;2.20;;
253;SDS011;590;48.772;8.846;2022-12-29T00:03:29;2.53;;;2.40;;
253;SDS011;590;48.772;8.846;2022-12-29T00:05:57;1.83;;;1.73;;
253;SDS011;590;48.772;8.846;2022-12-29T00:08:26;2.50;;;2.30;;
253;SDS011;590;48.772;8.846;2022-12-29T00:11:06;2.40;;;2.20;;
253;SDS011;590;48.772;8.846;2022-12-29T00:13:35;2.30;;;2.10;;
253;SDS011;590;48.772;8.846;2022-12-29T00:16:21;1.90;;;1.80;;
253;SDS011;590;48.772;8.846;2022-12-29T00:18:50;2.80;;;2.23;;
253;SDS011;590;48.772;8.846;2022-12-29T00:21:19;2.00;;;1.90;;
253;SDS011;590;48.772;8.846;2022-12-29T00:24:08;2.30;;;2.10;;
253;SDS011;590;48.772;8.846;2022-12-29T00:26:58;1.67;;;1.53;;
253;SDS011;590;48.772;8.846;2022-12-29T00:29:52;2.70;;;2.50;;
253;SDS011;590;48.772;8.846;2022-12-29T00:32:42;1.90;;;1.80;;
253;SDS011;590;48.772;8.846;2022-12-29T00:35:53;2.20;;;2.00;;
253;SDS011;590;48.772;8.846;2022-12-29T00:38:23;2.50;;;2.30;;
253;SDS011;590;48.772;8.846;2022-12-29T00:41:08;1.87;;;1.77;;
253;SDS011;590;48.772;8.846;2022-12-29T00:43:54;3.13;;;2.30;;
253;SDS011;590;48.772;8.846;2022-12-29T00:46:36;2.07;;;1.93;;
253;SDS011;590;48.772;8.846;2022-12-29T00:49:05;2.23;;;1.93;;
253;SDS011;590;48.772;8.846;2022-12-29T00:51:54;2.20;;;2.10;;
253;SDS011;590;48.772;8.846;2022-12-29T00:54:23;1.93;;;1.83;;
253;SDS011;590;48.772;8.846;2022-12-29T00:56:52;2.00;;;1.90;;
253;SDS011;590;48.772;8.846;2022-12-29T00:59:20;2.00;;;1.90;;
253;SDS011;590;48.772;8.846;2022-12-29T01:01:50;2.93;;;2.10;;
253;SDS011;590;48.772;8.846;2022-12-29T01:04:19;2.30;;;2.10;;
253;SDS011;590;48.772;8.846;2022-12-29T01:06:48;1.87;;;1.80;;
253;SDS011;590;48.772;8.846;2022-12-29T01:09:18;2.20;;;1.97;;
253;SDS011;590;48.772;8.846;2022-12-29T01:12:05;1.77;;;1.67;;
253;SDS011;590;48.772;8.846;2022-12-29T01:14:34;1.83;;;1.73;;
253;SDS011;590;48.772;8.846;2022-12-29T01:17:03;1.73;;;1.60;;
253;SDS011;590;48.772;8.846;2022-12-29T01:19:32;2.43;;;2.23;;
253;SDS011;590;48.772;8.846;2022-12-29T01:22:00;1.60;;;1.53;;
253;SDS011;590;48.772;8.846;2022-12-29T01:24:30;1.77;;;1.67;;
253;SDS011;590;48.772;8.846;2022-12-29T01:26:58;1.80;;;1.73;;
253;SDS011;590;48.772;8.846;2022-12-29T01:29:26;2.90;;;1.93;;
253;SDS011;590;48.772;8.846;2022-12-29T01:31:54;1.70;;;1.57;;
253;SDS011;590;48.772;8.846;2022-12-29T01:34:22;1.47;;;1.37;;
253;SDS011;590;48.772;8.846;2022-12-29T01:36:50;1.93;;;1.83;;
253;SDS011;590;48.772;8.846;2022-12-29T01:39:18;1.67;;;1.60;;
253;SDS011;590;48.772;8.846;2022-12-29T01:41:47;1.67;;;1.57;;
253;SDS011;590;48.772;8.846;2022-12-29T01:47:17;1.67;;;1.33;;
253;SDS011;590;48.772;8.846;2022-12-29T01:49:51;1.53;;;1.43;;
253;SDS011;590;48.772;8.846;2022-12-29T01:52:21;1.83;;;1.80;;
253;SDS011;590;48.772;8.846;2022-12-29T01:54:51;1.40;;;1.30;;
253;SDS011;590;48.772;8.846;2022-12-29T01:57:24;1.70;;;1.60;;
253;SDS011;590;48.772;8.846;2022-12-29T01:59:58;1.43;;;1.40;;
253;SDS011;590;48.772;8.846;2022-12-29T02:02:30;1.23;;;1.20;;
253;SDS011;590;48.772;8.846;2022-12-29T02:04:59;1.27;;;1.23;;
253;SDS011;590;48.772;8.846;2022-12-29T02:07:32;1.27;;;1.23;;
253;SDS011;590;48.772;8.846;2022-12-29T02:10:00;1.60;;;1.50;;
253;SDS011;590;48.772;8.846;2022-12-29T02:12:30;1.53;;;1.43;;
253;SDS011;590;48.772;8.846;2022-12-29T02:14:59;1.60;;;1.07;;
253;SDS011;590;48.772;8.846;2022-12-29T02:17:35;1.70;;;1.60;;
253;SDS011;590;48.772;8.846;2022-12-29T02:20:22;1.27;;;1.20;;
253;SDS011;590;48.772;8.846;2022-12-29T02:23:10;1.50;;;1.40;;
253;SDS011;590;48.772;8.846;2022-12-29T02:28:54;1.23;;;1.17;;
253;SDS011;590;48.772;8.846;2022-12-29T02:31:51;1.33;;;1.23;;
253;SDS011;590;48.772;8.846;2022-12-29T02:34:26;1.33;;;1.30;;
253;SDS011;590;48.772;8.846;2022-12-29T02:37:05;1.57;;;1.23;;
253;SDS011;590;48.772;8.846;2022-12-29T02:39:50;1.50;;;1.40;;
253;SDS011;590;48.772;8.846;2022-12-29T02:42:23;2.20;;;1.20;;
253;SDS011;590;48.772;8.846;2022-12-29T02:44:59;1.00;;;1.00;;
253;SDS011;590;48.772;8.846;2022-12-29T02:47:35;1.50;;;1.30;;
253;SDS011;590;48.772;8.846;2022-12-29T02:50:07;1.20;;;1.10;;
253;SDS011;590;48.772;8.846;2022-12-29T02:52:42;1.27;;;1.20;;
253;SDS011;590;48.772;8.846;2022-12-29T02:55:14;1.50;;;1.40;;
253;SDS011;590;48.772;8.846;2022-12-29T02:57:41;1.40;;;1.30;;
253;SDS011;590;48.772;8.846;2022-12-29T03:00:10;0.97;;;0.90;;
253;SDS011;590;48.772;8.846;2022-12-29T03:02:46;1.13;;;1.03;;
253;SDS011;590;48.772;8.846;2022-12-29T03:05:28;1.27;;;1.17;;
253;SDS011;590;48.772;8.846;2022-12-29T03:08:13;1.30;;;1.20;;
253;SDS011;590;48.772;8.846;2022-12-29T03:10:53;1.10;;;1.00;;
253;SDS011;590;48.772;8.846;2022-12-29T03:13:28;1.10;;;1.00;;
253;SDS011;590;48.772;8.846;2022-12-29T03:16:20;1.10;;;1.03;;
253;SDS011;590;48.772;8.846;2022-12-29T03:18:56;0.93;;;0.90;;
253;SDS011;590;48.772;8.846;2022-12-29T03:21:30;1.13;;;1.03;;
253;SDS011;590;48.772;8.846;2022-12-29T03:24:19;1.20;;;0.90;;
253;SDS011;590;48.772;8.846;2022-12-29T03:26:53;1.27;;;1.17;;
253;SDS011;590;48.772;8.846;2022-12-29T03:29:24;1.30;;;1.00;;
253;SDS011;590;48.772;8.846;2022-12-29T03:31:53;1.23;;;0.80;;
253;SDS011;590;48.772;8.846;2022-12-29T03:34:25;1.13;;;0.90;;
253;SDS011;590;48.772;8.846;2022-12-29T03:36:54;1.00;;;0.80;;
253;SDS011;590;48.772;8.846;2022-12-29T03:39:28;1.30;;;1.20;;
253;SDS011;590;48.772;8.846;2022-12-29T03:41:57;0.90;;;0.80;;
253;SDS011;590;48.772;8.846;2022-12-29T03:44:32;1.07;;;1.00;;
253;SDS011;590;48.772;8.846;2022-12-29T03:47:02;1.10;;;1.00;;
253;SDS011;590;48.772;8.846;2022-12-29T03:49:32;1.07;;;0.97;;
253;SDS011;590;48.772;8.846;2022-12-29T03:52:00;0.90;;;0.80;;
253;SDS011;590;48.772;8.846;2022-12-29T03:54:28;2.07;;;1.30;;
253;SDS011;590;48.772;8.846;2022-12-29T03:56:56;1.37;;;1.27;;
253;SDS011;590;48.772;8.846;2022-12-29T03:59:24;0.90;;;0.57;;
253;SDS011;590;48.772;8.846;2022-12-29T04:01:52;1.10;;;1.00;;
253;SDS011;590;48.772;8.846;2022-12-29T04:04:21;1.40;;;1.00;;
253;SDS011;590;48.772;8.846;2022-12-29T04:06:50;1.70;;;0.90;;
253;SDS011;590;48.772;8.846;2022-12-29T04:09:18;1.10;;;1.00;;
253;SDS011;590;48.772;8.846;2022-12-29T04:11:46;1.07;;;0.90;;
253;SDS011;590;48.772;8.846;2022-12-29T04:14:14;1.43;;;1.27;;
253;SDS011;590;48.772;8.846;2022-12-29T04:16:43;2.30;;;0.90;;
253;SDS011;590;48.772;8.846;2022-12-29T04:19:12;1.10;;;1.10;;
253;SDS011;590;48.772;8.846;2022-12-29T04:21:40;0.97;;;0.87;;
253;SDS011;590;48.772;8.846;2022-12-29T04:24:09;1.30;;;1.20;;
253;SDS011;590;48.772;8.846;2022-12-29T04:26:39;1.00;;;0.90;;
253;SDS011;590;48.772;8.846;2022-12-29T04:29:07;0.93;;;0.90;;
253;SDS011;590;48.772;8.846;2022-12-29T04:31:35;2.03;;;1.03;;
253;SDS011;590;48.772;8.846;2022-12-29T04:34:03;1.23;;;1.07;;
253;SDS011;590;48.772;8.846;2022-12-29T04:36:31;1.17;;;1.07;;
253;SDS011;590;48.772;8.846;2022-12-29T04:38:59;1.07;;;1.03;;
253;SDS011;590;48.772;8.846;2022-12-29T04:41:29;1.33;;;1.10;;
253;SDS011;590;48.772;8.846;2022-12-29T04:43:57;0.80;;;0.73;;
253;SDS011;590;48.772;8.846;2022-12-29T04:46:25;1.03;;;1.00;;
253;SDS011;590;48.772;8.846;2022-12-29T04:48:53;1.00;;;0.90;;
253;SDS011;590;48.772;8.846;2022-12-29T04:51:20;1.10;;;0.90;;
253;SDS011;590;48.772;8.846;2022-12-29T04:53:48;1.20;;;1.00;;
253;SDS011;590;48.772;8.846;2022-12-29T04:56:16;1.07;;;1.00;;
253;SDS011;590;48.772;8.846;2022-12-29T04:58:46;1.27;;;1.10;;
253;SDS011;590;48.772;8.846;2022-12-29T05:01:14;1.00;;;0.90;;
253;SDS011;590;48.772;8.846;2022-12-29T05:03:42;1.13;;;0.90;;
253;SDS011;590;48.772;8.846;2022-12-29T05:06:10;1.73;;;1.17;;
253;SDS011;590;48.772;8.846;2022-12-29T05:08:38;1.13;;;1.07;;
253;SDS011;590;48.772;8.846;2022-12-29T05:11:06;1.57;;;1.10;;
253;SDS011;590;48.772;8.846;2022-12-29T05:13:34;1.63;;;1.30;;
253;SDS011;590;48.772;8.846;2022-12-29T05:16:03;1.57;;;1.27;;
253;SDS011;590;48.772;8.846;2022-12-29T05:18:31;1.03;;;0.97;;
253;SDS011;590;48.772;8.846;2022-12-29T05:20:59;1.17;;;1.07;;
253;SDS011;590;48.772;8.846;2022-12-29T05:23:27;1.03;;;1.03;;
253;SDS011;590;48.772;8.846;2022-12-29T05:25:55;1.43;;;1.30;;
253;SDS011;590;48.772;8.846;2022-12-29T05:28:40;1.63;;;0.80;;
253;SDS011;590;48.772;8.846;2022-12-29T05:31:09;1.20;;;1.00;;
253;SDS011;590;48.772;8.846;2022-12-29T05:33:37;1.37;;;1.27;;
253;SDS011;590;48.772;8.846;2022-12-29T05:36:06;1.73;;;1.10;;
253;SDS011;590;48.772;8.846;2022-12-29T05:38:35;0.93;;;0.87;;
253;SDS011;590;48.772;8.846;2022-12-29T05:41:03;0.90;;;0.80;;
253;SDS011;590;48.772;8.846;2022-12-29T05:43:31;1.10;;;1.00;;
253;SDS011;590;48.772;8.846;2022-12-29T05:45:59;1.10;;;1.10;;
253;SDS011;590;48.772;8.846;2022-12-29T05:48:28;1.37;;;1.27;;
253;SDS011;590;48.772;8.846;2022-12-29T05:51:03;1.00;;;0.90;;
253;SDS011;590;48.772;8.846;2022-12-29T05:53:31;1.07;;;0.97;;
253;SDS011;590;48.772;8.846;2022-12-29T05:55:59;1.10;;;1.00;;
253;SDS011;590;48.772;8.846;2022-12-29T05:58:27;1.20;;;1.10;;
253;SDS011;590;48.772;8.846;2022-12-29T06:00:55;1.33;;;1.23;;
253;SDS011;590;48.772;8.846;2022-12-29T06:03:23;1.30;;;1.20;;
253;SDS011;590;48.772;8.846;2022-12-29T06:05:53;1.23;;;1.13;;
253;SDS011;590;48.772;8.846;2022-12-29T06:08:20;1.37;;;1.27;;
253;SDS011;590;48.772;8.846;2022-12-29T06:10:49;1.30;;;1.20;;
253;SDS011;590;48.772;8.846;2022-12-29T06:13:17;1.20;;;1.10;;
253;SDS011;590;48.772;8.846;2022-12-29T06:15:45;1.17;;;1.10;;
253;SDS011;590;48.772;8.846;2022-12-29T06:18:15;1.60;;;1.50;;
253;SDS011;590;48.772;8.846;2022-12-29T06:20:45;1.47;;;1.37;;
253;SDS011;590;48.772;8.846;2022-12-29T06:23:15;1.07;;;1.03;;
253;SDS011;590;48.772;8.846;2022-12-29T06:25:44;1.00;;;1.00;;
253;SDS011;590;48.772;8.846;2022-12-29T06:28:14;1.33;;;1.23;;
253;SDS011;590;48.772;8.846;2022-12-29T06:30:43;1.43;;;1.33;;
253;SDS011;590;48.772;8.846;2022-12-29T06:33:12;1.17;;;1.13;;
253;SDS011;590;48.772;8.846;2022-12-29T06:35:41;1.60;;;1.50;;
253;SDS011;590;48.772;8.846;2022-12-29T06:38:09;1.23;;;1.13;;
253;SDS011;590;48.772;8.846;2022-12-29T06:40:38;1.47;;;1.40;;
253;SDS011;590;48.772;8.846;2022-12-29T06:43:07;0.73;;;0.73;;
253;SDS011;590;48.772;8.846;2022-12-29T06:45:37;1.40;;;1.30;;
253;SDS011;590;48.772;8.846;2022-12-29T06:48:05;1.40;;;1.30;;
253;SDS011;590;48.772;8.846;2022-12-29T06:50:33;1.40;;;1.30;;
253;SDS011;590;48.772;8.846;2022-12-29T06:53:01;1.57;;;1.30;;
253;SDS011;590;48.772;8.846;2022-12-29T06:55:29;1.40;;;1.30;;
253;SDS011;590;48.772;8.846;2022-12-29T06:57:58;1.50;;;1.40;;
253;SDS011;590;48.772;8.846;2022-12-29T07:00:27;1.50;;;1.13;;
253;SDS011;590;48.772;8.846;2022-12-29T07:02:55;1.53;;;1.43;;
253;SDS011;590;48.772;8.846;2022-12-29T07:05:24;1.60;;;1.50;;
253;SDS011;590;48.772;8.846;2022-12-29T07:07:53;1.60;;;1.50;;
253;SDS011;590;48.772;8.846;2022-12-29T07:10:22;1.87;;;1.50;;
253;SDS011;590;48.772;8.846;2022-12-29T07:12:50;2.40;;;1.57;;
253;SDS011;590;48.772;8.846;2022-12-29T07:15:19;1.57;;;1.47;;
253;SDS011;590;48.772;8.846;2022-12-29T07:17:48;1.17;;;1.17;;
253;SDS011;590;48.772;8.846;2022-12-29T07:20:17;1.70;;;1.60;;
253;SDS011;590;48.772;8.846;2022-12-29T07:22:52;1.43;;;1.33;;
253;SDS011;590;48.772;8.846;2022-12-29T07:25:20;1.43;;;1.40;;
253;SDS011;590;48.772;8.846;2022-12-29T07:27:48;1.47;;;1.33;;
253;SDS011;590;48.772;8.846;2022-12-29T07:30:16;1.53;;;1.43;;
253;SDS011;590;48.772;8.846;2022-12-29T07:32:46;1.40;;;1.30;;
253;SDS011;590;48.772;8.846;2022-12-29T07:35:14;1.40;;;1.30;;
253;SDS011;590;48.772;8.846;2022-12-29T07:37:42;1.53;;;1.40;;
253;SDS011;590;48.772;8.846;2022-12-29T07:40:11;1.57;;;1.47;;
253;SDS011;590;48.772;8.846;2022-12-29T07:42:39;1.67;;;1.23;;
253;SDS011;590;48.772;8.846;2022-12-29T07:45:08;1.60;;;1.50;;
253;SDS011;590;48.772;8.846;2022-12-29T07:47:36;1.57;;;1.40;;
253;SDS011;590;48.772;8.846;2022-12-29T07:50:06;1.57;;;1.10;;
253;SDS011;590;48.772;8.846;2022-12-29T07:52:34;1.70;;;1.53;;
253;SDS011;590;48.772;8.846;2022-12-29T07:55:02;1.40;;;1.27;;
253;SDS011;590;48.772;8.846;2022-12-29T07:57:30;3.03;;;1.70;;
253;SDS011;590;48.772;8.846;2022-12-29T07:59:58;2.00;;;1.70;;
253;SDS011;590;48.772;8.846;2022-12-29T08:02:26;2.13;;;1.67;;
253;SDS011;590;48.772;8.846;2022-12-29T08:04:55;1.90;;;1.80;;
253;SDS011;590;48.772;8.846;2022-12-29T08:07:25;1.47;;;1.37;;
253;SDS011;590;48.772;8.846;2022-12-29T08:09:53;1.77;;;1.73;;
253;SDS011;590;48.772;8.846;2022-12-29T08:12:21;1.47;;;1.37;;
253;SDS011;590;48.772;8.846;2022-12-29T08:14:49;1.90;;;1.80;;
253;SDS011;590;48.772;8.846;2022-12-29T08:17:17;1.67;;;1.57;;
253;SDS011;590;48.772;8.846;2022-12-29T08:19:45;2.00;;;1.77;;
253;SDS011;590;48.772;8.846;2022-12-29T08:22:13;1.47;;;1.30;;
253;SDS011;590;48.772;8.846;2022-12-29T08:24:42;1.33;;;1.23;;
253;SDS011;590;48.772;8.846;2022-12-29T08:27:10;2.00;;;1.90;;
253;SDS011;590;48.772;8.846;2022-12-29T08:29:46;1.57;;;1.47;;
253;SDS011;590;48.772;8.846;2022-12-29T08:32:14;2.00;;;1.90;;
253;SDS011;590;48.772;8.846;2022-12-29T08:34:43;1.47;;;1.37;;
253;SDS011;590;48.772;8.846;2022-12-29T08:37:11;1.47;;;1.37;;
253;SDS011;590;48.772;8.846;2022-12-29T08:39:39;1.50;;;1.40;;
253;SDS011;590;48.772;8.846;2022-12-29T08:42:08;1.77;;;1.70;;
253;SDS011;590;48.772;8.846;2022-12-29T08:44:36;1.83;;;1.50;;
253;SDS011;590;48.772;8.846;2022-12-29T08:47:05;1.70;;;1.67;;
253;SDS011;590;48.772;8.846;2022-12-29T08:49:34;2.70;;;1.67;;
253;SDS011;590;48.772;8.846;2022-12-29T08:52:02;1.67;;;1.57;;
253;SDS011;590;48.772;8.846;2022-12-29T08:54:30;2.27;;;2.13;;
253;SDS011;590;48.772;8.846;2022-12-29T08:56:58;2.10;;;1.90;;
253;SDS011;590;48.772;8.846;2022-12-29T08:59:27;3.60;;;1.70;;
253;SDS011;590;48.772;8.846;2022-12-29T09:01:55;1.50;;;1.40;;
253;SDS011;590;48.772;8.846;2022-12-29T09:04:23;1.37;;;1.30;;
253;SDS011;590;48.772;8.846;2022-12-29T09:06:52;1.40;;;1.37;;
253;SDS011;590;48.772;8.846;2022-12-29T09:09:20;1.77;;;1.70;;
253;SDS011;590;48.772;8.846;2022-12-29T09:11:48;2.47;;;2.00;;
253;SDS011;590;48.772;8.846;2022-12-29T09:14:16;1.97;;;1.57;;
253;SDS011;590;48.772;8.846;2022-12-29T09:16:47;1.40;;;1.30;;
253;SDS011;590;48.772;8.846;2022-12-29T09:19:33;1.87;;;1.80;;
253;SDS011;590;48.772;8.846;2022-12-29T09:22:01;2.20;;;1.60;;
253;SDS011;590;48.772;8.846;2022-12-29T09:24:29;1.87;;;1.50;;
253;SDS011;590;48.772;8.846;2022-12-29T09:26:58;1.67;;;1.57;;
253;SDS011;590;48.772;8.846;2022-12-29T09:29:26;3.07;;;1.50;;
253;SDS011;590;48.772;8.846;2022-12-29T09:31:55;1.57;;;1.50;;
253;SDS011;590;48.772;8.846;2022-12-29T09:34:23;1.67;;;1.57;;
253;SDS011;590;48.772;8.846;2022-12-29T09:36:51;1.53;;;1.37;;
253;SDS011;590;48.772;8.846;2022-12-29T09:39:19;1.37;;;1.30;;
253;SDS011;590;48.772;8.846;2022-12-29T09:41:49;2.40;;;1.50;;
253;SDS011;590;48.772;8.846;2022-12-29T09:44:26;2.00;;;1.60;;
253;SDS011;590;48.772;8.846;2022-12-29T09:47:08;1.43;;;1.33;;
253;SDS011;590;48.772;8.846;2022-12-29T09:49:42;1.93;;;1.30;;
253;SDS011;590;48.772;8.846;2022-12-29T09:52:13;1.30;;;1.20;;
253;SDS011;590;48.772;8.846;2022-12-29T09:54:48;1.50;;;1.40;;
253;SDS011;590;48.772;8.846;2022-12-29T09:57:29;1.23;;;1.13;;
253;SDS011;590;48.772;8.846;2022-12-29T10:00:03;1.50;;;1.40;;
253;SDS011;590;48.772;8.846;2022-12-29T10:02:40;1.90;;;1.80;;
253;SDS011;590;48.772;8.846;2022-12-29T10:05:18;1.47;;;1.37;;
253;SDS011;590;48.772;8.846;2022-12-29T10:08:06;1.27;;;1.10;;
253;SDS011;590;48.772;8.846;2022-12-29T10:10:51;1.17;;;1.17;;
253;SDS011;590;48.772;8.846;2022-12-29T10:13:28;1.70;;;1.67;;
253;SDS011;590;48.772;8.846;2022-12-29T10:16:05;1.27;;;1.20;;
253;SDS011;590;48.772;8.846;2022-12-29T10:21:39;1.37;;;1.30;;
253;SDS011;590;48.772;8.846;2022-12-29T10:24:17;1.90;;;1.67;;
253;SDS011;590;48.772;8.846;2022-12-29T10:26:48;1.80;;;1.40;;
253;SDS011;590;48.772;8.846;2022-12-29T10:29:19;1.50;;;1.40;;
253;SDS011;590;48.772;8.846;2022-12-29T10:31:50;1.43;;;1.33;;
253;SDS011;590;48.772;8.846;2022-12-29T10:34:27;1.40;;;1.30;;
253;SDS011;590;48.772;8.846;2022-12-29T10:37:00;1.50;;;1.40;;
253;SDS011;590;48.772;8.846;2022-12-29T10:39:33;1.40;;;1.30;;
253;SDS011;590;48.772;8.846;2022-12-29T10:42:09;1.40;;;1.30;;
253;SDS011;590;48.772;8.846;2022-12-29T10:44:41;1.20;;;1.20;;
253;SDS011;590;48.772;8.846;2022-12-29T10:47:11;1.47;;;1.37;;
253;SDS011;590;48.772;8.846;2022-12-29T10:49:44;1.20;;;1.00;;
253;SDS011;590;48.772;8.846;2022-12-29T10:52:14;1.77;;;1.00;;
253;SDS011;590;48.772;8.846;2022-12-29T10:54:45;1.47;;;1.13;;
253;SDS011;590;48.772;8.846;2022-12-29T10:57:19;2.17;;;1.40;;
253;SDS011;590;48.772;8.846;2022-12-29T10:59:53;0.90;;;0.87;;
253;SDS011;590;48.772;8.846;2022-12-29T11:05:27;1.20;;;1.10;;
253;SDS011;590;48.772;8.846;2022-12-29T11:08:02;1.43;;;1.30;;
253;SDS011;590;48.772;8.846;2022-12-29T11:10:34;1.67;;;1.17;;
253;SDS011;590;48.772;8.846;2022-12-29T11:13:10;1.20;;;1.10;;
253;SDS011;590;48.772;8.846;2022-12-29T11:15:40;1.20;;;1.10;;
253;SDS011;590;48.772;8.846;2022-12-29T11:18:17;1.67;;;1.57;;
253;SDS011;590;48.772;8.846;2022-12-29T11:20:48;1.60;;;1.17;;
253;SDS011;590;48.772;8.846;2022-12-29T11:23:25;1.33;;;1.30;;
253;SDS011;590;48.772;8.846;2022-12-29T11:26:05;1.30;;;1.20;;
253;SDS011;590;48.772;8.846;2022-12-29T11:28:45;1.07;;;0.97;;
253;SDS011;590;48.772;8.846;2022-12-29T11:31:17;1.40;;;1.30;;
253;SDS011;590;48.772;8.846;2022-12-29T11:33:49;1.00;;;1.00;;
253;SDS011;590;48.772;8.846;2022-12-29T11:36:19;1.00;;;1.00;;
253;SDS011;590;48.772;8.846;2022-12-29T11:38:50;1.90;;;1.20;;
253;SDS011;590;48.772;8.846;2022-12-29T11:41:22;1.63;;;1.13;;
253;SDS011;590;48.772;8.846;2022-12-29T11:43:52;1.23;;;1.10;;
253;SDS011;590;48.772;8.846;2022-12-29T11:46:22;1.40;;;1.30;;
253;SDS011;590;48.772;8.846;2022-12-29T11:48:54;1.00;;;0.87;;
253;SDS011;590;48.772;8.846;2022-12-29T11:51:28;1.47;;;1.30;;
253;SDS011;590;48.772;8.846;2022-12-29T11:53:59;1.17;;;1.07;;
253;SDS011;590;48.772;8.846;2022-12-29T11:56:33;1.13;;;1.10;;
253;SDS011;590;48.772;8.846;2022-12-29T12:02:19;1.80;;;1.20;;
253;SDS011;590;48.772;8.846;2022-12-29T12:05:20;1.60;;;1.50;;
253;SDS011;590;48.772;8.846;2022-12-29T12:07:59;1.20;;;1.10;;
253;SDS011;590;48.772;8.846;2022-12-29T12:10:33;0.80;;;0.80;;
253;SDS011;590;48.772;8.846;2022-12-29T12:13:12;1.40;;;1.10;;
253;SDS011;590;48.772;8.846;2022-12-29T12:15:46;0.93;;;0.90;;
253;SDS011;590;48.772;8.846;2022-12-29T12:18:25;2.60;;;1.37;;
253;SDS011;590;48.772;8.846;2022-12-29T12:21:00;1.20;;;1.10;;
253;SDS011;590;48.772;8.846;2022-12-29T12:23:38;1.20;;;1.13;;
253;SDS011;590;48.772;8.846;2022-12-29T12:26:25;1.00;;;0.97;;
253;SDS011;590;48.772;8.846;2022-12-29T12:28:58;1.47;;;0.93;;
253;SDS011;590;48.772;8.846;2022-12-29T12:31:35;1.40;;;0.87;;
253;SDS011;590;48.772;8.846;2022-12-29T12:34:13;1.90;;;1.20;;
253;SDS011;590;48.772;8.846;2022-12-29T12:36:49;1.40;;;1.20;;
253;SDS011;590;48.772;8.846;2022-12-29T12:39:30;2.00;;;1.00;;
253;SDS011;590;48.772;8.846;2022-12-29T12:42:08;0.90;;;0.70;;
253;SDS011;590;48.772;8.846;2022-12-29T12:44:58;0.97;;;0.80;;
253;SDS011;590;48.772;8.846;2022-12-29T12:47:45;0.70;;;0.70;;
253;SDS011;590;48.772;8.846;2022-12-29T12:50:26;1.47;;;0.93;;
253;SDS011;590;48.772;8.846;2022-12-29T12:56:06;1.30;;;1.20;;
253;SDS011;590;48.772;8.846;2022-12-29T12:58:55;1.30;;;0.97;;
253;SDS011;590;48.772;8.846;2022-12-29T13:01:38;1.10;;;1.00;;
253;SDS011;590;48.772;8.846;2022-12-29T13:04:21;1.20;;;1.10;;
253;SDS011;590;48.772;8.846;2022-12-29T13:07:07;2.13;;;1.20;;
253;SDS011;590;48.772;8.846;2022-12-29T13:09:48;1.00;;;0.90;;
253;SDS011;590;48.772;8.846;2022-12-29T13:12:30;3.23;;;1.27;;
253;SDS011;590;48.772;8.846;2022-12-29T13:15:12;1.37;;;1.20;;
253;SDS011;590;48.772;8.846;2022-12-29T13:17:48;1.00;;;0.80;;
253;SDS011;590;48.772;8.846;2022-12-29T13:20:24;1.00;;;0.90;;
253;SDS011;590;48.772;8.846;2022-12-29T13:22:58;1.07;;;0.90;;
253;SDS011;590;48.772;8.846;2022-12-29T13:25:33;1.30;;;1.13;;
253;SDS011;590;48.772;8.846;2022-12-29T13:28:09;1.50;;;1.20;;
253;SDS011;590;48.772;8.846;2022-12-29T13:30:45;1.20;;;1.10;;
253;SDS011;590;48.772;8.846;2022-12-29T13:33:22;0.97;;;0.90;;
253;SDS011;590;48.772;8.846;2022-12-29T13:35:59;1.00;;;0.90;;
253;SDS011;590;48.772;8.846;2022-12-29T13:38:32;0.90;;;0.90;;
253;SDS011;590;48.772;8.846;2022-12-29T13:41:25;0.80;;;0.70;;
253;SDS011;590;48.772;8.846;2022-12-29T13:43:59;0.90;;;0.80;;
253;SDS011;590;48.772;8.846;2022-12-29T13:46:31;0.93;;;0.90;;
253;SDS011;590;48.772;8.846;2022-12-29T13:49:04;1.50;;;1.07;;
253;SDS011;590;48.772;8.846;2022-12-29T13:51:35;1.23;;;1.10;;
253;SDS011;590;48.772;8.846;2022-12-29T13:54:14;1.23;;;1.03;;
253;SDS011;590;48.772;8.846;2022-12-29T13:56:52;1.20;;;1.00;;
253;SDS011;590;48.772;8.846;2022-12-29T13:59:30;0.90;;;0.67;;
253;SDS011;590;48.772;8.846;2022-12-29T14:02:15;1.40;;;1.30;;
253;SDS011;590;48.772;8.846;2022-12-29T14:04:57;1.10;;;1.03;;
253;SDS011;590;48.772;8.846;2022-12-29T14:07:27;1.17;;;1.13;;
253;SDS011;590;48.772;8.846;2022-12-29T14:09:56;1.03;;;1.00;;
253;SDS011;590;48.772;8.846;2022-12-29T14:12:28;1.00;;;0.80;;
253;SDS011;590;48.772;8.846;2022-12-29T14:15:05;1.50;;;1.50;;
253;SDS011;590;48.772;8.846;2022-12-29T14:17:43;1.40;;;0.87;;
253;SDS011;590;48.772;8.846;2022-12-29T14:20:18;0.80;;;0.70;;
253;SDS011;590;48.772;8.846;2022-12-29T14:22:56;1.90;;;1.30;;
253;SDS011;590;48.772;8.846;2022-12-29T14:28:22;1.07;;;0.90;;
253;SDS011;590;48.772;8.846;2022-12-29T14:30:53;1.10;;;1.00;;
253;SDS011;590;48.772;8.846;2022-12-29T14:33:22;1.57;;;1.10;;
253;SDS011;590;48.772;8.846;2022-12-29T14:35:53;0.90;;;0.87;;
253;SDS011;590;48.772;8.846;2022-12-29T14:38:26;1.10;;;1.00;;
253;SDS011;590;48.772;8.846;2022-12-29T14:43:52;1.00;;;0.90;;
253;SDS011;590;48.772;8.846;2022-12-29T14:46:27;1.27;;;1.17;;
253;SDS011;590;48.772;8.846;2022-12-29T14:49:14;1.40;;;1.30;;
253;SDS011;590;48.772;8.846;2022-12-29T14:51:45;1.10;;;1.00;;
253;SDS011;590;48.772;8.846;2022-12-29T14:54:34;1.17;;;1.07;;
253;SDS011;590;48.772;8.846;2022-12-29T14:57:14;1.10;;;1.00;;
253;SDS011;590;48.772;8.846;2022-12-29T14:59:48;1.20;;;1.10;;
253;SDS011;590;48.772;8.846;2022-12-29T15:02:23;1.23;;;1.13;;
253;SDS011;590;48.772;8.846;2022-12-29T15:04:59;1.10;;;1.00;;
253;SDS011;590;48.772;8.846;2022-12-29T15:07:29;1.10;;;1.00;;
253;SDS011;590;48.772;8.846;2022-12-29T15:10:00;1.50;;;1.00;;
253;SDS011;590;48.772;8.846;2022-12-29T15:12:35;1.60;;;1.10;;
253;SDS011;590;48.772;8.846;2022-12-29T15:15:16;0.97;;;0.93;;
253;SDS011;590;48.772;8.846;2022-12-29T15:17:47;0.97;;;0.87;;
253;SDS011;590;48.772;8.846;2022-12-29T15:20:19;1.17;;;0.70;;
253;SDS011;590;48.772;8.846;2022-12-29T15:22:51;1.00;;;0.90;;
253;SDS011;590;48.772;8.846;2022-12-29T15:25:21;1.10;;;1.00;;
253;SDS011;590;48.772;8.846;2022-12-29T15:27:50;1.07;;;1.00;;
253;SDS011;590;48.772;8.846;2022-12-29T15:30:20;1.17;;;1.07;;
253;SDS011;590;48.772;8.846;2022-12-29T15:32:49;2.13;;;1.20;;
253;SDS011;590;48.772;8.846;2022-12-29T15:35:22;1.53;;;1.00;;
253;SDS011;590;48.772;8.846;2022-12-29T15:37:56;1.13;;;1.03;;
253;SDS011;590;48.772;8.846;2022-12-29T15:40:26;1.27;;;1.20;;
253;SDS011;590;48.772;8.846;2022-12-29T15:43:08;1.30;;;1.20;;
253;SDS011;590;48.772;8.846;2022-12-29T15:45:51;1.50;;;1.40;;
253;SDS011;590;48.772;8.846;2022-12-29T15:48:23;1.20;;;1.10;;
253;SDS011;590;48.772;8.846;2022-12-29T15:50:52;1.90;;;1.80;;
253;SDS011;590;48.772;8.846;2022-12-29T15:53:21;1.27;;;1.17;;
253;SDS011;590;48.772;8.846;2022-12-29T15:55:55;1.50;;;1.40;;
253;SDS011;590;48.772;8.846;2022-12-29T15:58:30;1.20;;;1.13;;
253;SDS011;590;48.772;8.846;2022-12-29T16:00:59;1.53;;;0.93;;
253;SDS011;590;48.772;8.846;2022-12-29T16:03:31;1.10;;;1.00;;
253;SDS011;590;48.772;8.846;2022-12-29T16:06:07;1.07;;;0.87;;
253;SDS011;590;48.772;8.846;2022-12-29T16:08:37;1.30;;;1.20;;
253;SDS011;590;48.772;8.846;2022-12-29T16:11:08;1.17;;;1.07;;
253;SDS011;590;48.772;8.846;2022-12-29T16:13:47;1.10;;;1.00;;
253;SDS011;590;48.772;8.846;2022-12-29T16:16:18;1.33;;;1.00;;
253;SDS011;590;48.772;8.846;2022-12-29T16:18:49;1.20;;;1.10;;
253;SDS011;590;48.772;8.846;2022-12-29T16:21:24;1.13;;;1.10;;
253;SDS011;590;48.772;8.846;2022-12-29T16:23:55;1.10;;;1.00;;
253;SDS011;590;48.772;8.846;2022-12-29T16:26:27;1.53;;;1.43;;
253;SDS011;590;48.772;8.846;2022-12-29T16:28:56;0.80;;;0.70;;
253;SDS011;590;48.772;8.846;2022-12-29T16:31:32;1.10;;;1.10;;
253;SDS011;590;48.772;8.846;2022-12-29T16:34:19;1.00;;;0.90;;
253;SDS011;590;48.772;8.846;2022-12-29T16:36:54;1.20;;;1.13;;
253;SDS011;590;48.772;8.846;2022-12-29T16:39:25;1.70;;;1.10;;
253;SDS011;590;48.772;8.846;2022-12-29T16:41:56;1.17;;;1.00;;
253;SDS011;590;48.772;8.846;2022-12-29T16:44:25;1.20;;;1.10;;